TimePDT,TemperatureF,Dew PointF,Humidity,Sea Level PressureIn,VisibilityMPH,Wind Direction,Wind SpeedMPH,Gust SpeedMPH,PrecipitationIn,Events,Conditions,WindDirDegrees,DateUTC
12:55 AM,63.0,57.9,84,30.05,9.0,NNE,3.5,-,N/A,,Overcast,30,2012-10-04 07:55:00
1:55 AM,63.0,57.9,84,30.06,9.0,Calm,Calm,-,N/A,,Overcast,0,2012-10-04 08:55:00
2:55 AM,63.0,57.9,84,30.06,9.0,Calm,Calm,-,N/A,,Overcast,0,2012-10-04 09:55:00
3:55 AM,63.0,57.0,81,30.06,9.0,SW,3.5,-,N/A,,Overcast,230,2012-10-04 10:55:00
4:55 AM,63.0,57.0,81,30.06,9.0,Calm,Calm,-,N/A,,Overcast,0,2012-10-04 11:55:00
5:55 AM,63.0,57.0,81,30.08,9.0,NW,5.8,-,N/A,,Overcast,320,2012-10-04 12:55:00
6:03 AM,62.6,57.2,82,30.06,9.0,NW,4.6,-,N/A,,Overcast,320,2012-10-04 13:03:00
6:55 AM,62.1,55.9,80,30.09,9.0,NNW,4.6,-,N/A,,Overcast,330,2012-10-04 13:55:00
7:55 AM,63.0,55.9,78,30.11,7.0,NW,3.5,-,N/A,,Overcast,310,2012-10-04 14:55:00
8:55 AM,63.0,55.9,78,30.13,7.0,SW,3.5,-,N/A,,Overcast,230,2012-10-04 15:55:00
9:55 AM,64.0,55.9,75,30.14,7.0,Calm,Calm,-,N/A,,Overcast,0,2012-10-04 16:55:00
10:53 AM,69.8,57.2,64,30.11,7.0,Calm,Calm,-,N/A,,Clear,0,2012-10-04 17:53:00
10:55 AM,69.1,57.0,65,30.14,7.0,Variable,4.6,-,N/A,,Clear,0,2012-10-04 17:55:00
11:55 AM,70.0,55.9,61,30.13,9.0,SW,11.5,-,N/A,,Clear,230,2012-10-04 18:55:00
12:55 PM,70.0,55.9,61,30.11,10.0,WSW,8.1,-,N/A,,Clear,240,2012-10-04 19:55:00
1:55 PM,70.0,55.9,61,30.10,10.0,West,9.2,-,N/A,,Clear,260,2012-10-04 20:55:00
2:55 PM,70.0,55.9,61,30.09,10.0,West,10.4,-,N/A,,Clear,260,2012-10-04 21:55:00
3:55 PM,69.1,55.9,63,30.08,10.0,West,9.2,-,N/A,,Clear,260,2012-10-04 22:55:00
4:55 PM,69.1,57.9,68,30.06,10.0,West,10.4,-,N/A,,Clear,260,2012-10-04 23:55:00
5:55 PM,66.0,57.9,75,30.07,10.0,West,6.9,-,N/A,,Clear,260,2012-10-05 00:55:00
6:55 PM,64.9,57.9,78,30.07,10.0,West,5.8,-,N/A,,Scattered Clouds,260,2012-10-05 01:55:00
7:55 PM,64.0,57.9,80,30.07,10.0,Calm,Calm,-,N/A,,Clear,0,2012-10-05 02:55:00
8:55 PM,63.0,57.9,84,30.08,10.0,Calm,Calm,-,N/A,,Clear,0,2012-10-05 03:55:00
9:55 PM,63.0,57.9,84,30.08,10.0,Calm,Calm,-,N/A,,Clear,0,2012-10-05 04:55:00
10:55 PM,61.0,57.9,90,30.08,10.0,Calm,Calm,-,N/A,,Partly Cloudy,0,2012-10-05 05:55:00
11:15 PM,60.8,57.2,88,30.05,10.0,SE,3.5,-,N/A,,Mostly Cloudy,140,2012-10-05 06:15:00
11:55 PM,61.0,57.0,87,30.08,10.0,Calm,Calm,-,N/A,,Overcast,0,2012-10-05 06:55:00